Time;durP1;ratioP1;P1;durP2;ratioP2;P2;SDS_P1;SDS_P2;PMS_P1;PMS_P2;Temp;Humidity;BMP_temperature;BMP_pressure;BME280_temperature;BME280_humidity;BME280_pressure;Samples;Min_cycle;Max_cycle;Signal;HPM_P1;HPM_P2
2021/12/11 00:01:26;;;;;;;3.90;3.10;;;16.40;75.50;;;;;;4994507;28;20138;-65
2021/12/11 00:03:52;;;;;;;3.53;2.95;;;16.40;75.40;;;;;;4984883;28;20085;-65
2021/12/11 00:06:19;;;;;;;4.60;2.97;;;16.40;75.40;;;;;;4975671;28;20050;-65
2021/12/11 00:08:45;;;;;;;3.72;3.00;;;16.40;75.50;;;;;;4975250;28;20130;-65
2021/12/11 00:11:12;;;;;;;3.63;3.03;;;16.40;75.40;;;;;;4975154;28;20133;-65
2021/12/11 00:13:39;;;;;;;3.60;3.03;;;16.40;75.40;;;;;;4975239;28;20439;-65
2021/12/11 00:16:05;;;;;;;3.05;2.75;;;16.40;75.40;;;;;;4975388;28;20047;-65
2021/12/11 00:18:32;;;;;;;3.30;3.00;;;16.40;75.40;;;;;;4974889;28;20093;-65
2021/12/11 00:20:58;;;;;;;3.55;2.67;;;16.30;75.30;;;;;;4974958;28;20493;-65
2021/12/11 00:23:25;;;;;;;3.20;2.67;;;16.30;75.30;;;;;;4975351;28;20047;-65
2021/12/11 00:25:52;;;;;;;3.05;2.63;;;16.40;75.40;;;;;;4974878;28;20385;-64
2021/12/11 00:28:18;;;;;;;3.17;2.88;;;16.40;75.40;;;;;;4975078;28;20078;-64
2021/12/11 00:30:44;;;;;;;3.03;2.45;;;16.30;75.30;;;;;;4974585;28;20496;-65
2021/12/11 00:33:11;;;;;;;3.30;2.72;;;16.30;75.20;;;;;;4974773;28;20072;-65
2021/12/11 00:35:37;;;;;;;2.85;2.58;;;16.30;75.30;;;;;;4975072;28;20053;-65
2021/12/11 00:38:04;;;;;;;3.35;3.05;;;16.30;75.20;;;;;;4974983;28;20057;-65
2021/12/11 00:40:30;;;;;;;3.47;2.97;;;16.40;75.30;;;;;;4974721;28;20584;-65
2021/12/11 00:42:57;;;;;;;2.92;2.63;;;16.40;75.20;;;;;;4974666;28;20046;-65
2021/12/11 00:45:23;;;;;;;3.65;3.25;;;16.30;75.20;;;;;;4975129;28;20043;-65
2021/12/11 00:47:50;;;;;;;4.68;3.30;;;16.30;75.20;;;;;;4974553;28;20507;-65
2021/12/11 00:50:17;;;;;;;3.13;2.83;;;16.30;75.10;;;;;;4974588;28;20414;-65
2021/12/11 00:52:43;;;;;;;3.00;2.70;;;16.30;75.10;;;;;;4974827;28;20125;-65
2021/12/11 00:55:09;;;;;;;3.85;3.22;;;16.30;75.20;;;;;;4974493;28;20043;-65
2021/12/11 00:57:36;;;;;;;3.67;2.95;;;16.30;75.20;;;;;;4974393;28;20051;-65
2021/12/11 01:00:02;;;;;;;3.97;2.83;;;16.30;75.00;;;;;;4974091;28;20050;-65
2021/12/11 01:02:29;;;;;;;3.45;3.08;;;16.30;75.10;;;;;;4983631;28;20524;-65
2021/12/11 01:04:55;;;;;;;3.38;2.90;;;16.30;75.70;;;;;;4994024;28;20073;-65
2021/12/11 01:07:24;;;;;;;4.18;3.47;;;16.30;75.10;;;;;;4993692;28;20043;-65
2021/12/11 01:09:50;;;;;;;3.55;3.20;;;16.30;75.10;;;;;;4993435;28;20084;-65
2021/12/11 01:12:18;;;;;;;4.05;3.15;;;16.30;75.00;;;;;;4993816;28;20046;-65
2021/12/11 01:14:51;;;;;;;3.80;3.28;;;16.30;75.00;;;;;;4993610;28;20051;-65
2021/12/11 01:17:19;;;;;;;3.42;3.03;;;16.30;74.90;;;;;;4993845;28;20050;-65
2021/12/11 01:19:47;;;;;;;3.25;2.95;;;16.30;74.90;;;;;;4993519;28;20050;-65
2021/12/11 01:22:22;;;;;;;3.95;3.28;;;16.30;74.90;;;;;;4993361;28;20051;-65
2021/12/11 01:24:51;;;;;;;3.58;3.22;;;16.30;74.90;;;;;;4993756;28;20057;-65
2021/12/11 01:27:18;;;;;;;3.42;2.90;;;16.30;74.90;;;;;;4993423;28;20046;-65
2021/12/11 01:29:44;;;;;;;3.53;3.10;;;16.30;74.90;;;;;;4993231;28;20052;-65
2021/12/11 01:32:11;;;;;;;3.13;2.83;;;16.30;74.90;;;;;;4987586;28;20047;-64
2021/12/11 01:34:37;;;;;;;3.78;3.03;;;16.30;74.90;;;;;;4973924;28;20078;-66
2021/12/11 01:37:04;;;;;;;3.47;3.05;;;16.30;74.90;;;;;;4973737;28;20051;-65
2021/12/11 01:39:30;;;;;;;4.40;3.38;;;16.30;74.90;;;;;;4973787;28;20082;-65
2021/12/11 01:41:56;;;;;;;3.10;2.80;;;16.30;74.90;;;;;;4973604;28;20130;-65
2021/12/11 01:44:26;;;;;;;3.30;3.00;;;16.30;74.90;;;;;;4973550;28;20086;-65
2021/12/11 01:46:52;;;;;;;3.53;3.22;;;16.30;74.90;;;;;;4973745;28;20047;-65
2021/12/11 01:49:19;;;;;;;3.72;3.08;;;16.30;74.90;;;;;;4973581;28;20053;-65
2021/12/11 01:51:45;;;;;;;3.55;3.05;;;16.30;74.90;;;;;;4973336;28;20504;-65
2021/12/11 01:54:13;;;;;;;3.22;2.90;;;16.30;74.90;;;;;;4972739;28;20051;-65
2021/12/11 01:56:41;;;;;;;3.90;3.20;;;16.30;74.80;;;;;;4973260;28;20097;-66
2021/12/11 01:59:07;;;;;;;3.95;3.42;;;16.30;74.90;;;;;;4973398;28;20146;-65
2021/12/11 02:01:34;;;;;;;3.30;3.00;;;16.30;74.90;;;;;;4986558;28;20133;-65
2021/12/11 02:04:00;;;;;;;3.97;3.20;;;16.30;74.80;;;;;;4992604;28;20101;-66
2021/12/11 02:06:27;;;;;;;3.58;3.00;;;16.30;74.80;;;;;;4992776;28;20057;-65
2021/12/11 02:08:53;;;;;;;3.55;3.10;;;16.30;74.80;;;;;;4992581;28;20133;-65
2021/12/11 02:11:20;;;;;;;3.00;2.70;;;16.30;74.80;;;;;;4992193;28;20133;-65
2021/12/11 02:13:49;;;;;;;3.13;2.67;;;16.30;74.80;;;;;;4992360;28;20499;-65
2021/12/11 02:16:16;;;;;;;4.22;3.33;;;16.30;74.80;;;;;;4992355;28;20451;-65
2021/12/11 02:18:45;;;;;;;3.85;3.35;;;16.30;74.80;;;;;;4992508;28;20125;-65
2021/12/11 02:21:12;;;;;;;5.07;3.38;;;16.20;74.70;;;;;;4992299;28;20046;-65
2021/12/11 02:23:38;;;;;;;3.38;2.92;;;16.30;74.70;;;;;;4992123;28;20050;-65
2021/12/11 02:26:04;;;;;;;3.85;3.13;;;16.30;74.80;;;;;;4992616;28;20042;-65
2021/12/11 02:28:31;;;;;;;4.05;3.33;;;16.20;74.70;;;;;;4992196;28;20567;-65
2021/12/11 02:31:00;;;;;;;3.42;2.92;;;16.30;74.60;;;;;;4985127;28;20066;-65
2021/12/11 02:33:27;;;;;;;4.07;3.10;;;16.30;74.70;;;;;;4972957;28;20051;-65
2021/12/11 02:35:54;;;;;;;3.22;2.92;;;16.20;74.60;;;;;;4972627;28;20069;-65
2021/12/11 02:38:20;;;;;;;3.70;3.28;;;16.20;74.50;;;;;;4972573;28;20142;-64
2021/12/11 02:40:47;;;;;;;3.38;3.03;;;16.30;74.60;;;;;;4972533;28;20562;-64
2021/12/11 02:43:13;;;;;;;3.53;3.03;;;16.20;74.50;;;;;;4972680;28;20125;-64
2021/12/11 02:45:39;;;;;;;3.90;3.22;;;16.20;74.60;;;;;;4972731;28;20053;-65
2021/12/11 02:48:06;;;;;;;3.75;3.13;;;16.20;74.50;;;;;;4972652;28;20042;-65
2021/12/11 02:50:32;;;;;;;3.28;2.97;;;16.20;74.50;;;;;;4972522;28;20687;-65
2021/12/11 02:52:59;;;;;;;3.85;3.30;;;16.20;74.50;;;;;;4972526;28;20126;-65
2021/12/11 02:55:25;;;;;;;3.40;3.10;;;16.20;74.50;;;;;;4972254;28;20850;-65
2021/12/11 02:57:52;;;;;;;3.50;3.20;;;16.20;74.40;;;;;;4972539;28;20043;-65
2021/12/11 03:00:18;;;;;;;3.80;3.08;;;16.20;74.40;;;;;;4987133;28;20133;-64
2021/12/11 03:02:48;;;;;;;3.83;3.03;;;16.20;74.40;;;;;;4991670;28;20542;-65
2021/12/11 03:05:16;;;;;;;3.35;2.95;;;16.20;74.30;;;;;;4991787;28;20491;-64
2021/12/11 03:07:50;;;;;;;3.67;3.33;;;16.20;74.30;;;;;;4994459;28;20046;-64
2021/12/11 03:10:16;;;;;;;3.25;2.90;;;16.20;74.30;;;;;;4995804;28;20062;-65
2021/12/11 03:12:44;;;;;;;3.85;3.30;;;16.20;74.40;;;;;;4995794;28;20550;-65
2021/12/11 03:15:10;;;;;;;3.60;3.10;;;16.20;74.30;;;;;;4995629;28;20488;-65
2021/12/11 03:17:37;;;;;;;3.80;3.40;;;16.20;74.30;;;;;;4995798;28;20123;-65
2021/12/11 03:20:03;;;;;;;3.53;3.20;;;16.20;74.30;;;;;;4995876;28;20086;-65
2021/12/11 03:22:30;;;;;;;3.63;3.10;;;16.20;74.20;;;;;;4995777;28;20162;-65
2021/12/11 03:24:56;;;;;;;4.07;3.30;;;16.20;74.20;;;;;;4995693;28;20057;-64
2021/12/11 03:27:23;;;;;;;4.28;3.60;;;16.20;74.10;;;;;;4995407;28;20129;-65
2021/12/11 03:29:49;;;;;;;4.30;3.60;;;16.20;74.10;;;;;;4994924;28;20164;-65
2021/12/11 03:32:16;;;;;;;3.80;3.33;;;16.20;74.00;;;;;;4995347;28;20089;-65
2021/12/11 03:34:42;;;;;;;3.58;3.20;;;16.30;74.10;;;;;;4995677;28;20043;-65
2021/12/11 03:37:08;;;;;;;3.65;3.35;;;16.30;74.10;;;;;;4995792;28;20141;-65
2021/12/11 03:39:35;;;;;;;4.60;3.60;;;16.20;74.00;;;;;;4995390;28;20157;-65
2021/12/11 03:42:01;;;;;;;4.68;3.75;;;16.20;74.00;;;;;;4995366;28;20049;-65
2021/12/11 03:44:32;;;;;;;3.78;3.28;;;16.20;74.60;;;;;;4995414;28;20133;-65
2021/12/11 03:46:59;;;;;;;4.07;3.40;;;16.20;74.00;;;;;;4995085;28;20050;-65
2021/12/11 03:49:25;;;;;;;3.45;3.15;;;16.20;74.00;;;;;;4995220;28;20074;-65
2021/12/11 03:51:52;;;;;;;3.80;3.40;;;16.20;74.00;;;;;;4994981;28;20545;-64
2021/12/11 03:54:18;;;;;;;4.50;3.50;;;16.20;74.00;;;;;;4995033;28;20050;-65
2021/12/11 03:56:45;;;;;;;3.38;3.00;;;16.20;74.00;;;;;;4995220;28;20130;-65
2021/12/11 03:59:11;;;;;;;3.50;3.17;;;16.20;73.90;;;;;;4994975;28;20042;-65
2021/12/11 04:01:40;;;;;;;3.75;3.25;;;16.20;73.90;;;;;;4994776;28;20157;-65
2021/12/11 04:04:06;;;;;;;3.80;3.45;;;16.20;73.90;;;;;;4995137;28;20137;-65
2021/12/11 04:06:33;;;;;;;3.75;3.20;;;16.20;73.90;;;;;;4995006;28;20052;-65
2021/12/11 04:08:59;;;;;;;4.05;3.63;;;16.20;73.90;;;;;;4994626;28;20494;-65
2021/12/11 04:11:26;;;;;;;3.70;3.30;;;16.20;73.90;;;;;;4994532;28;20133;-65
2021/12/11 04:13:52;;;;;;;4.32;3.92;;;16.20;73.90;;;;;;4994685;28;20052;-64
2021/12/11 04:16:18;;;;;;;3.95;3.30;;;16.20;73.80;;;;;;4995013;28;20050;-64
2021/12/11 04:18:45;;;;;;;4.05;3.63;;;16.20;73.80;;;;;;4993948;28;20498;-64
2021/12/11 04:21:11;;;;;;;3.83;3.25;;;16.20;73.80;;;;;;4994545;28;20125;-65
2021/12/11 04:23:38;;;;;;;3.63;3.22;;;16.20;73.70;;;;;;4994442;28;20046;-65
2021/12/11 04:26:04;;;;;;;3.50;3.00;;;16.20;73.70;;;;;;4994380;28;20046;-65
2021/12/11 04:28:31;;;;;;;3.67;3.10;;;16.20;73.70;;;;;;4984125;28;20054;-65
2021/12/11 04:31:02;;;;;;;3.90;3.45;;;16.20;73.70;;;;;;4974675;28;20051;-65
2021/12/11 04:33:29;;;;;;;4.55;3.63;;;16.20;73.70;;;;;;4975021;28;20051;-65
2021/12/11 04:35:55;;;;;;;5.03;3.80;;;16.20;73.70;;;;;;4974938;28;20134;-64
2021/12/11 04:38:22;;;;;;;4.55;3.70;;;16.20;73.70;;;;;;4975062;28;20134;-65
2021/12/11 04:40:51;;;;;;;3.50;3.20;;;16.20;73.70;;;;;;4974732;28;20053;-65
2021/12/11 04:43:21;;;;;;;3.83;3.15;;;16.20;73.60;;;;;;4974523;28;20051;-65
2021/12/11 04:45:48;;;;;;;3.38;3.08;;;16.20;73.60;;;;;;4974747;28;20141;-65
2021/12/11 04:48:19;;;;;;;3.65;3.35;;;16.20;73.60;;;;;;4974624;28;20047;-65
2021/12/11 04:50:51;;;;;;;3.55;3.25;;;16.20;73.60;;;;;;4974451;28;20050;-65
2021/12/11 04:53:34;;;;;;;3.40;3.10;;;16.20;73.60;;;;;;4974574;28;20051;-65
2021/12/11 04:56:22;;;;;;;3.70;2.78;;;16.20;73.70;;;;;;4977377;28;20046;-65
2021/12/11 04:58:59;;;;;;;3.75;3.38;;;16.20;73.60;;;;;;4993955;28;20516;-65
2021/12/11 05:01:44;;;;;;;3.40;3.10;;;16.20;73.60;;;;;;4993574;28;20413;-65
2021/12/11 05:04:34;;;;;;;3.47;3.00;;;16.20;73.60;;;;;;4993667;28;20189;-65
2021/12/11 05:07:05;;;;;;;3.25;2.90;;;16.20;73.60;;;;;;4994017;28;20043;-65
2021/12/11 05:09:37;;;;;;;3.33;3.03;;;16.20;73.60;;;;;;4993883;28;20492;-65
2021/12/11 05:14:46;;;;;;;3.75;3.13;;;16.20;73.50;;;;;;4993130;28;20174;-65
2021/12/11 05:17:13;;;;;;;3.95;3.30;;;16.20;73.60;;;;;;4993766;28;20046;-65
2021/12/11 05:19:39;;;;;;;3.67;3.25;;;16.20;73.50;;;;;;4993468;28;20134;-65
2021/12/11 05:22:06;;;;;;;3.60;3.05;;;16.20;73.60;;;;;;4993584;28;20074;-65
2021/12/11 05:24:32;;;;;;;3.40;3.10;;;16.20;73.60;;;;;;4993395;28;20047;-65
2021/12/11 05:26:59;;;;;;;3.78;3.15;;;16.20;73.50;;;;;;4984124;28;20204;-65
2021/12/11 05:29:25;;;;;;;3.33;3.03;;;16.20;73.50;;;;;;4973035;28;20042;-65
2021/12/11 05:31:52;;;;;;;3.95;3.35;;;16.20;73.50;;;;;;4973476;28;20138;-65
2021/12/11 05:34:18;;;;;;;3.33;3.03;;;16.10;73.40;;;;;;4973882;28;20075;-65
2021/12/11 05:36:45;;;;;;;3.47;3.17;;;16.20;73.40;;;;;;4973786;28;20050;-65
2021/12/11 05:39:11;;;;;;;3.78;3.38;;;16.20;73.50;;;;;;4973658;28;20043;-65
2021/12/11 05:41:37;;;;;;;3.38;2.85;;;16.10;73.40;;;;;;4973876;28;20046;-65
2021/12/11 05:44:04;;;;;;;3.10;2.80;;;16.10;73.40;;;;;;4973763;28;20080;-65
2021/12/11 05:46:30;;;;;;;3.53;3.22;;;16.20;73.40;;;;;;4973598;28;20122;-65
2021/12/11 05:48:57;;;;;;;3.55;3.15;;;16.10;73.40;;;;;;4973574;28;20087;-65
2021/12/11 05:51:23;;;;;;;4.00;3.05;;;16.20;73.40;;;;;;4973374;28;20082;-65
2021/12/11 05:53:50;;;;;;;3.63;3.00;;;16.10;73.30;;;;;;4973506;28;20098;-65
2021/12/11 05:56:17;;;;;;;3.70;3.30;;;16.20;73.40;;;;;;4975376;28;20567;-65
2021/12/11 05:58:56;;;;;;;4.18;3.22;;;16.10;73.30;;;;;;4992848;28;20074;-65
2021/12/11 06:01:23;;;;;;;3.47;3.15;;;16.10;73.30;;;;;;4992534;28;20064;-65
2021/12/11 06:03:49;;;;;;;3.50;3.13;;;16.20;73.40;;;;;;4993102;28;20054;-66
2021/12/11 06:06:15;;;;;;;3.50;3.20;;;16.10;73.30;;;;;;4992681;28;20050;-65
2021/12/11 06:08:42;;;;;;;3.50;3.05;;;16.20;73.40;;;;;;4992610;28;20124;-65
2021/12/11 06:11:08;;;;;;;3.00;2.72;;;16.20;73.40;;;;;;4992542;28;20136;-65
2021/12/11 06:13:35;;;;;;;3.33;2.90;;;16.20;73.40;;;;;;4992366;28;20501;-65
2021/12/11 06:16:01;;;;;;;3.10;2.80;;;16.10;73.30;;;;;;4992677;28;20050;-65
2021/12/11 06:18:28;;;;;;;3.53;3.10;;;16.20;73.40;;;;;;4992442;28;20129;-65
2021/12/11 06:20:54;;;;;;;3.60;2.90;;;16.10;73.30;;;;;;4992369;28;20046;-65
2021/12/11 06:23:22;;;;;;;3.30;2.92;;;16.10;73.30;;;;;;4992166;28;20084;-65
2021/12/11 06:25:48;;;;;;;3.95;3.28;;;16.10;73.30;;;;;;4981490;28;20129;-65
2021/12/11 06:28:15;;;;;;;3.00;2.60;;;16.10;73.30;;;;;;4973086;28;20125;-65
2021/12/11 06:30:41;;;;;;;3.80;3.35;;;16.10;73.30;;;;;;4972621;28;20238;-65
2021/12/11 06:33:07;;;;;;;3.35;2.88;;;16.10;73.30;;;;;;4972752;28;20133;-65
2021/12/11 06:35:34;;;;;;;3.42;3.00;;;16.10;73.30;;;;;;4972536;28;20414;-65
2021/12/11 06:38:00;;;;;;;3.25;2.95;;;16.20;73.40;;;;;;4972870;28;20081;-66
2021/12/11 06:40:27;;;;;;;3.40;3.10;;;16.10;73.30;;;;;;4972384;28;20130;-65
2021/12/11 06:42:53;;;;;;;3.28;2.65;;;16.10;73.30;;;;;;4972752;28;20478;-65
2021/12/11 06:45:20;;;;;;;3.50;3.20;;;16.20;73.30;;;;;;4972897;28;20130;-65
2021/12/11 06:47:46;;;;;;;3.13;2.65;;;16.10;73.30;;;;;;4972674;28;20082;-65
2021/12/11 06:50:13;;;;;;;3.45;2.92;;;16.10;73.30;;;;;;4972569;28;20085;-65
2021/12/11 06:52:39;;;;;;;3.30;3.00;;;16.10;73.30;;;;;;4972464;28;20145;-65
2021/12/11 06:55:06;;;;;;;3.22;2.90;;;16.10;73.30;;;;;;4972486;28;20483;-65
2021/12/11 06:57:32;;;;;;;3.10;2.80;;;16.10;73.30;;;;;;4972547;28;20086;-65
2021/12/11 06:59:59;;;;;;;3.38;2.75;;;16.10;73.30;;;;;;4972339;28;20086;-65
2021/12/11 07:02:25;;;;;;;3.38;3.05;;;16.10;73.30;;;;;;4972107;28;20587;-65
2021/12/11 07:04:54;;;;;;;3.90;3.00;;;16.10;73.30;;;;;;4972420;28;20057;-65
2021/12/11 07:07:24;;;;;;;3.00;2.70;;;16.10;73.30;;;;;;4972703;28;20047;-65
2021/12/11 07:09:50;;;;;;;3.13;2.80;;;16.10;73.30;;;;;;4972509;28;20139;-65
2021/12/11 07:12:17;;;;;;;3.13;2.80;;;16.20;73.30;;;;;;4972270;28;20488;-65
2021/12/11 07:14:43;;;;;;;3.47;2.95;;;16.10;73.30;;;;;;4972508;28;20122;-65
2021/12/11 07:17:09;;;;;;;3.03;2.72;;;16.10;73.30;;;;;;4972334;28;20043;-65
2021/12/11 07:19:36;;;;;;;2.80;2.60;;;16.20;73.30;;;;;;4972223;28;20142;-65
2021/12/11 07:22:02;;;;;;;3.22;2.92;;;16.10;73.30;;;;;;4972389;28;20502;-65
2021/12/11 07:24:30;;;;;;;3.10;2.80;;;16.10;73.30;;;;;;4972198;28;20129;-65
2021/12/11 07:26:57;;;;;;;3.40;2.95;;;16.10;73.30;;;;;;4972424;28;20043;-65
2021/12/11 07:29:23;;;;;;;4.03;3.10;;;16.10;73.20;;;;;;4972375;28;20163;-65
2021/12/11 07:31:50;;;;;;;4.35;3.20;;;16.10;73.20;;;;;;4971773;28;20138;-65
2021/12/11 07:34:16;;;;;;;3.13;2.67;;;16.20;73.20;;;;;;4972319;28;20047;-65
2021/12/11 07:36:43;;;;;;;3.33;3.03;;;16.20;73.20;;;;;;4972124;28;20575;-65
2021/12/11 07:39:09;;;;;;;3.15;2.85;;;16.20;73.20;;;;;;4972205;28;20073;-65
2021/12/11 07:41:35;;;;;;;2.95;2.67;;;16.20;73.30;;;;;;4972243;28;20047;-65
2021/12/11 07:44:02;;;;;;;3.03;2.72;;;16.20;73.20;;;;;;4972186;28;20561;-65
2021/12/11 07:46:28;;;;;;;3.10;2.80;;;16.20;73.20;;;;;;4972172;28;20074;-65
2021/12/11 07:48:57;;;;;;;3.50;3.20;;;16.20;73.20;;;;;;4972547;28;20042;-65
2021/12/11 07:51:23;;;;;;;3.10;2.80;;;16.20;73.10;;;;;;4972020;28;20444;-65
2021/12/11 07:53:49;;;;;;;3.08;2.53;;;16.20;73.10;;;;;;4974482;28;20085;-65
2021/12/11 07:56:17;;;;;;;3.08;2.58;;;16.20;73.10;;;;;;4975451;28;20527;-65
2021/12/11 07:58:44;;;;;;;2.85;2.50;;;16.20;73.10;;;;;;4975684;28;20043;-65
2021/12/11 08:01:10;;;;;;;3.00;2.70;;;16.20;73.10;;;;;;4975552;28;20101;-65
2021/12/11 08:03:37;;;;;;;3.40;2.80;;;16.20;73.10;;;;;;4975535;28;20110;-65
2021/12/11 08:06:03;;;;;;;3.13;2.83;;;16.20;73.00;;;;;;4975662;28;20126;-66
2021/12/11 08:08:30;;;;;;;3.25;2.58;;;16.20;72.90;;;;;;4975513;28;20057;-65
2021/12/11 08:10:56;;;;;;;3.42;2.60;;;16.30;73.00;;;;;;4975149;28;20053;-65
2021/12/11 08:13:23;;;;;;;4.25;2.83;;;16.30;73.00;;;;;;4975319;28;20583;-65
2021/12/11 08:15:50;;;;;;;3.05;2.75;;;16.30;72.90;;;;;;4975138;28;20125;-65
2021/12/11 08:18:17;;;;;;;3.58;2.80;;;16.30;72.90;;;;;;4975459;28;20051;-65
2021/12/11 08:20:43;;;;;;;2.67;2.47;;;16.40;72.90;;;;;;4975065;28;20050;-65
2021/12/11 08:23:10;;;;;;;3.45;2.88;;;16.40;72.80;;;;;;4974901;28;20415;-65
2021/12/11 08:25:36;;;;;;;3.28;2.90;;;16.40;72.70;;;;;;4975323;28;20069;-65
2021/12/11 08:28:03;;;;;;;2.90;2.58;;;16.50;72.70;;;;;;4975000;28;20089;-65
2021/12/11 08:30:29;;;;;;;2.75;2.45;;;16.50;72.70;;;;;;4974696;28;20137;-65
2021/12/11 08:32:56;;;;;;;3.03;2.70;;;16.60;72.60;;;;;;4974989;28;20133;-65
2021/12/11 08:35:22;;;;;;;2.83;2.60;;;16.60;72.50;;;;;;4975010;28;20050;-65
2021/12/11 08:37:49;;;;;;;2.75;2.55;;;16.70;72.50;;;;;;4975026;28;20130;-65
2021/12/11 08:40:15;;;;;;;3.10;2.72;;;16.70;72.40;;;;;;4974828;28;20583;-65
2021/12/11 08:42:42;;;;;;;2.60;2.40;;;16.70;72.30;;;;;;4974826;28;20075;-66
2021/12/11 08:45:10;;;;;;;3.15;2.67;;;16.80;72.30;;;;;;4974677;28;20488;-65
2021/12/11 08:47:38;;;;;;;2.95;2.65;;;16.90;72.30;;;;;;4974584;28;20083;-65
2021/12/11 08:50:04;;;;;;;3.35;3.05;;;16.90;72.20;;;;;;4974645;28;20047;-65
2021/12/11 08:52:31;;;;;;;3.28;2.78;;;16.90;72.10;;;;;;4974312;28;20133;-65
2021/12/11 08:54:57;;;;;;;2.90;2.60;;;17.00;72.10;;;;;;4974473;28;20508;-65
2021/12/11 08:57:24;;;;;;;3.15;2.85;;;17.00;72.00;;;;;;4974461;28;20425;-65
2021/12/11 08:59:50;;;;;;;3.38;2.90;;;17.10;71.90;;;;;;4974473;28;20079;-65
2021/12/11 09:02:17;;;;;;;2.75;2.55;;;17.10;71.80;;;;;;4974269;28;20134;-65
2021/12/11 09:04:44;;;;;;;3.33;2.88;;;17.20;71.80;;;;;;4974303;28;20522;-65
2021/12/11 09:07:10;;;;;;;3.28;2.60;;;17.20;71.80;;;;;;4974375;28;20057;-65
2021/12/11 09:09:36;;;;;;;2.78;2.50;;;17.20;71.80;;;;;;4973992;28;20043;-65
2021/12/11 09:12:03;;;;;;;3.28;2.97;;;17.20;71.70;;;;;;4973997;28;20051;-65
2021/12/11 09:14:29;;;;;;;2.85;2.50;;;17.30;71.80;;;;;;4974095;28;20506;-65
2021/12/11 09:16:56;;;;;;;4.85;2.75;;;17.30;71.80;;;;;;4974176;28;20043;-65
2021/12/11 09:19:23;;;;;;;3.60;2.97;;;17.20;71.70;;;;;;4974257;28;20046;-65
2021/12/11 09:21:49;;;;;;;3.28;2.70;;;17.20;71.70;;;;;;4974258;28;20057;-65
2021/12/11 09:24:17;;;;;;;3.00;2.63;;;17.30;71.80;;;;;;4973847;28;20051;-65
2021/12/11 09:26:44;;;;;;;3.70;2.80;;;17.20;71.80;;;;;;4973973;28;20053;-65
2021/12/11 09:29:12;;;;;;;3.50;2.75;;;17.20;71.80;;;;;;4974022;28;20042;-66
2021/12/11 09:31:38;;;;;;;3.05;2.50;;;17.20;71.80;;;;;;4973618;28;20061;-66
2021/12/11 09:34:05;;;;;;;3.08;2.75;;;17.30;71.90;;;;;;4973810;28;20097;-65
2021/12/11 09:36:32;;;;;;;2.78;2.55;;;17.20;71.90;;;;;;4973799;28;20051;-65
2021/12/11 09:39:04;;;;;;;3.92;2.90;;;17.20;71.90;;;;;;4973590;28;20074;-65
2021/12/11 09:41:33;;;;;;;2.75;2.55;;;17.20;71.90;;;;;;4973581;28;20051;-65
2021/12/11 09:43:59;;;;;;;3.28;2.60;;;17.20;72.00;;;;;;4973809;28;20047;-65
2021/12/11 09:46:26;;;;;;;3.30;3.00;;;17.20;72.10;;;;;;4973663;28;20130;-65
2021/12/11 09:48:52;;;;;;;3.53;2.92;;;17.10;72.10;;;;;;4973618;28;20508;-64
2021/12/11 09:51:20;;;;;;;2.60;2.20;;;17.10;72.10;;;;;;4981005;28;20121;-65
2021/12/11 09:53:46;;;;;;;2.35;2.15;;;17.10;72.10;;;;;;4992697;28;20153;-65
2021/12/11 09:56:13;;;;;;;3.15;2.75;;;17.10;72.20;;;;;;4992625;28;20133;-65
2021/12/11 09:58:39;;;;;;;3.13;2.70;;;17.10;72.20;;;;;;4992881;28;20484;-65
2021/12/11 10:01:06;;;;;;;2.90;2.53;;;17.10;72.20;;;;;;4992553;28;20499;-65
2021/12/11 10:03:32;;;;;;;2.92;2.53;;;17.10;72.20;;;;;;4992494;28;20085;-65
2021/12/11 10:06:10;;;;;;;3.42;2.70;;;17.10;72.20;;;;;;4992466;28;20046;-66
2021/12/11 10:08:39;;;;;;;3.28;2.50;;;17.10;72.20;;;;;;4992386;28;20546;-65
2021/12/11 10:11:06;;;;;;;3.17;2.80;;;17.10;72.20;;;;;;4992588;28;20050;-65
2021/12/11 10:13:32;;;;;;;3.20;2.90;;;17.10;72.20;;;;;;4992543;28;20057;-65
2021/12/11 10:15:58;;;;;;;3.33;2.58;;;17.10;72.30;;;;;;4992227;28;20484;-65
2021/12/11 10:18:25;;;;;;;3.38;2.45;;;17.10;72.40;;;;;;4992445;28;20125;-65
2021/12/11 10:20:51;;;;;;;3.72;2.70;;;17.10;72.40;;;;;;4991414;28;20134;-65
2021/12/11 10:23:18;;;;;;;2.60;2.38;;;17.10;72.40;;;;;;4972791;28;20404;-65
2021/12/11 10:25:44;;;;;;;4.47;2.60;;;17.10;72.50;;;;;;4972974;28;20065;-66
2021/12/11 10:28:11;;;;;;;2.90;2.55;;;17.10;72.60;;;;;;4973013;28;20051;-65
2021/12/11 10:30:39;;;;;;;3.85;3.00;;;17.10;72.60;;;;;;4972596;28;20133;-65
2021/12/11 10:33:06;;;;;;;3.03;2.40;;;17.00;72.60;;;;;;4972726;28;20050;-66
2021/12/11 10:35:32;;;;;;;3.25;2.60;;;17.10;72.60;;;;;;4973086;28;20062;-66
2021/12/11 10:38:00;;;;;;;2.55;2.30;;;17.10;72.70;;;;;;4972654;28;20523;-66
2021/12/11 10:40:26;;;;;;;2.92;2.10;;;17.00;72.70;;;;;;4972866;28;20456;-66
2021/12/11 10:42:53;;;;;;;3.47;2.35;;;17.00;72.80;;;;;;4972605;28;20051;-66
2021/12/11 10:45:19;;;;;;;2.90;2.50;;;17.00;72.80;;;;;;4972666;28;20049;-66
2021/12/11 10:47:47;;;;;;;2.40;2.15;;;17.00;72.80;;;;;;4972624;28;20085;-66
2021/12/11 10:50:14;;;;;;;3.00;2.55;;;17.00;72.90;;;;;;4982914;28;20177;-66
2021/12/11 10:52:40;;;;;;;2.25;2.05;;;17.00;73.00;;;;;;4992031;28;20082;-66
2021/12/11 10:55:07;;;;;;;2.78;2.20;;;16.90;73.00;;;;;;4992006;28;20052;-66
2021/12/11 10:57:33;;;;;;;3.38;2.22;;;16.90;73.00;;;;;;4991908;28;20586;-66
2021/12/11 11:00:00;;;;;;;2.47;2.17;;;16.90;73.00;;;;;;4991510;28;20070;-66
2021/12/11 11:02:26;;;;;;;3.53;2.15;;;16.90;73.10;;;;;;4991639;28;20146;-66
2021/12/11 11:04:52;;;;;;;2.53;2.13;;;16.90;73.20;;;;;;4991834;28;20397;-66
2021/12/11 11:07:19;;;;;;;3.30;2.15;;;16.90;73.20;;;;;;4991955;28;20077;-66
2021/12/11 11:09:45;;;;;;;2.97;2.10;;;16.90;73.20;;;;;;4991748;28;20141;-66
2021/12/11 11:12:12;;;;;;;3.13;2.03;;;16.90;73.30;;;;;;4991928;28;20497;-65
2021/12/11 11:14:38;;;;;;;3.22;2.38;;;16.90;73.30;;;;;;4992030;28;20530;-65
2021/12/11 11:17:05;;;;;;;3.22;2.45;;;16.90;73.30;;;;;;4991649;28;20104;-65
2021/12/11 11:19:31;;;;;;;2.90;1.95;;;16.90;73.40;;;;;;4990185;28;20406;-65
2021/12/11 11:21:58;;;;;;;3.42;2.13;;;16.90;73.40;;;;;;4972443;28;20134;-65
2021/12/11 11:24:25;;;;;;;2.58;2.13;;;16.90;73.40;;;;;;4972300;28;20046;-65
2021/12/11 11:26:51;;;;;;;2.92;2.17;;;16.90;73.50;;;;;;4972271;28;20087;-65
2021/12/11 11:29:18;;;;;;;2.53;2.33;;;16.80;73.40;;;;;;4975623;28;20133;-65
2021/12/11 11:31:44;;;;;;;2.35;1.80;;;16.90;73.50;;;;;;4975785;28;20137;-65
2021/12/11 11:34:11;;;;;;;3.08;2.15;;;16.80;73.50;;;;;;4976157;28;20073;-65
2021/12/11 11:36:37;;;;;;;2.28;2.08;;;16.90;73.60;;;;;;4976032;28;20129;-65
2021/12/11 11:39:05;;;;;;;3.55;2.20;;;16.90;73.60;;;;;;4975766;28;20500;-65
2021/12/11 11:41:31;;;;;;;2.30;2.10;;;16.80;73.60;;;;;;4975857;28;20413;-65
2021/12/11 11:43:58;;;;;;;2.40;1.85;;;16.80;73.60;;;;;;4975790;28;20086;-65
2021/12/11 11:46:24;;;;;;;2.53;1.95;;;16.80;73.70;;;;;;4975933;28;20042;-65
2021/12/11 11:48:51;;;;;;;2.20;2.00;;;16.80;73.70;;;;;;4981390;28;20046;-65
2021/12/11 11:51:17;;;;;;;2.47;1.92;;;16.80;73.70;;;;;;4995562;28;20137;-65
2021/12/11 11:53:44;;;;;;;3.20;2.20;;;16.80;73.70;;;;;;4994944;28;20525;-65
2021/12/11 11:56:10;;;;;;;2.38;1.90;;;16.80;73.80;;;;;;4995078;28;20130;-65
2021/12/11 11:58:37;;;;;;;2.42;1.88;;;16.80;73.80;;;;;;4994913;28;20085;-65
2021/12/11 12:01:03;;;;;;;2.88;1.98;;;16.80;73.90;;;;;;4994576;28;20485;-65
2021/12/11 12:03:30;;;;;;;2.55;1.90;;;16.80;73.90;;;;;;4994748;28;20057;-65
2021/12/11 12:05:56;;;;;;;2.55;2.05;;;16.80;73.90;;;;;;4995065;28;20128;-65
2021/12/11 12:08:23;;;;;;;2.20;1.90;;;16.80;73.90;;;;;;4995017;28;20129;-65
2021/12/11 12:10:49;;;;;;;2.33;1.95;;;16.80;74.30;;;;;;4994772;28;20133;-65
2021/12/11 12:13:16;;;;;;;2.80;2.08;;;16.80;74.00;;;;;;4994492;28;20149;-65
2021/12/11 12:15:43;;;;;;;3.17;1.90;;;16.80;74.00;;;;;;4994741;28;20105;-65
2021/12/11 12:18:09;;;;;;;2.17;1.75;;;16.80;74.00;;;;;;4994618;28;20054;-65
2021/12/11 12:20:37;;;;;;;2.72;1.80;;;16.80;74.00;;;;;;4994568;28;20133;-65
2021/12/11 12:23:03;;;;;;;2.55;1.80;;;16.80;74.10;;;;;;4994639;28;20049;-65
2021/12/11 12:25:30;;;;;;;2.67;1.98;;;16.80;74.10;;;;;;4994196;28;20145;-65
2021/12/11 12:27:56;;;;;;;2.55;2.00;;;16.70;74.10;;;;;;4994490;28;20404;-65
2021/12/11 12:30:23;;;;;;;2.47;2.08;;;16.80;74.20;;;;;;4994465;28;20053;-66
2021/12/11 12:32:51;;;;;;;2.63;1.83;;;16.80;74.20;;;;;;4994372;28;20133;-65
2021/12/11 12:35:18;;;;;;;2.03;1.75;;;16.80;74.20;;;;;;4994294;28;20970;-66
2021/12/11 12:37:44;;;;;;;2.33;1.98;;;16.80;74.20;;;;;;4994370;28;20049;-65
2021/12/11 12:40:11;;;;;;;3.03;2.30;;;16.80;74.20;;;;;;4993769;28;20133;-65
2021/12/11 12:42:38;;;;;;;2.33;1.75;;;16.70;74.20;;;;;;4994078;28;20551;-65
2021/12/11 12:45:04;;;;;;;2.67;1.75;;;16.70;74.20;;;;;;4994017;28;20492;-65
2021/12/11 12:47:30;;;;;;;2.60;1.80;;;16.70;74.30;;;;;;4994204;28;20050;-65
2021/12/11 12:49:57;;;;;;;2.25;1.83;;;16.70;74.30;;;;;;4994162;28;20054;-65